createdAt,value
2019-05-03T00:01:39.458Z,13.43
2019-05-03T00:04:07.857Z,15.00
2019-05-03T00:06:36.256Z,15.03
2019-05-03T00:09:08.199Z,16.47
2019-05-03T00:11:36.660Z,15.50
2019-05-03T00:14:05.727Z,16.13
2019-05-03T00:16:36.207Z,13.23
2019-05-03T00:19:04.741Z,16.23
2019-05-03T00:21:34.731Z,16.73
2019-05-03T00:24:03.453Z,15.63
2019-05-03T00:26:31.924Z,13.80
2019-05-03T00:29:02.104Z,15.57
2019-05-03T00:31:31.905Z,15.23
2019-05-03T00:34:12.483Z,18.13
2019-05-03T00:36:42.654Z,19.13
2019-05-03T00:39:32.528Z,15.60
2019-05-03T00:42:02.698Z,13.77
2019-05-03T00:44:31.741Z,18.63
2019-05-03T00:47:01.786Z,16.97
2019-05-03T00:49:32.065Z,19.13
2019-05-03T00:52:02.321Z,18.50
2019-05-03T00:54:33.517Z,19.83
2019-05-03T00:57:02.704Z,15.17
2019-05-03T00:59:32.646Z,19.90
2019-05-03T01:02:02.691Z,14.60
2019-05-03T01:04:31.805Z,15.97
2019-05-03T01:07:02.119Z,16.17
2019-05-03T01:09:31.745Z,14.50
2019-05-03T01:12:01.952Z,14.53
2019-05-03T01:14:31.685Z,13.00
2019-05-03T01:17:02.474Z,13.57
2019-05-03T01:19:32.061Z,13.73
2019-05-03T01:22:01.963Z,13.77
2019-05-03T01:24:32.293Z,12.83
2019-05-03T01:27:01.983Z,12.57
2019-05-03T01:29:32.274Z,13.10
2019-05-03T01:32:02.299Z,11.43
2019-05-03T01:34:32.602Z,11.23
2019-05-03T01:37:02.621Z,11.13
2019-05-03T01:39:31.605Z,15.20
2019-05-03T01:42:02.504Z,12.43
2019-05-03T01:44:32.517Z,15.80
2019-05-03T01:47:02.549Z,17.80
2019-05-03T01:49:44.610Z,15.40
2019-05-03T01:52:15.238Z,17.13
2019-05-03T01:54:43.939Z,16.80
2019-05-03T01:57:12.362Z,15.23
2019-05-03T01:59:42.495Z,14.47
2019-05-03T02:02:14.305Z,16.37
2019-05-03T02:04:44.665Z,9.53
2019-05-03T02:07:13.056Z,11.33
2019-05-03T02:09:41.745Z,8.50
2019-05-03T02:12:10.255Z,11.60
2019-05-03T02:14:38.641Z,8.30
2019-05-03T02:17:07.102Z,10.10
2019-05-03T02:19:35.859Z,7.80
2019-05-03T02:22:04.544Z,10.33
2019-05-03T02:24:33.174Z,9.70
2019-05-03T02:27:02.159Z,8.57
2019-05-03T02:29:32.553Z,7.97
2019-05-03T02:32:03.343Z,5.30
2019-05-03T02:34:32.728Z,5.23
2019-05-03T02:37:02.941Z,9.93
2019-05-03T02:39:33.485Z,7.70
2019-05-03T02:42:10.998Z,6.83
2019-05-03T02:44:35.523Z,7.10
2019-05-03T02:47:15.899Z,11.10
2019-05-03T02:49:46.254Z,7.63
2019-05-03T02:52:35.824Z,6.53
2019-05-03T02:55:07.894Z,6.10
2019-05-03T02:57:36.285Z,7.17
2019-05-03T03:00:08.522Z,8.60
2019-05-03T03:02:38.142Z,5.53
2019-05-03T03:05:08.388Z,6.70
2019-05-03T03:07:38.012Z,7.33
2019-05-03T03:10:09.133Z,8.20
2019-05-03T03:12:40.451Z,9.20
2019-05-03T03:15:09.978Z,8.83
2019-05-03T03:17:41.283Z,9.13
2019-05-03T03:20:10.510Z,9.93
2019-05-03T03:22:42.163Z,9.27
2019-05-03T03:25:12.631Z,8.33
2019-05-03T03:27:45.316Z,8.47
2019-05-03T03:30:37.466Z,9.13
2019-05-03T03:33:08.743Z,12.20
2019-05-03T03:35:38.963Z,11.07
2019-05-03T03:38:08.295Z,10.67
2019-05-03T03:40:38.431Z,14.33
2019-05-03T03:43:09.186Z,10.13
2019-05-03T03:45:39.718Z,10.00
2019-05-03T03:48:10.139Z,10.93
2019-05-03T03:50:42.026Z,10.17
2019-05-03T03:53:11.894Z,10.87
2019-05-03T03:55:45.647Z,13.13
2019-05-03T03:58:17.711Z,13.40
2019-05-03T04:00:46.423Z,15.63
2019-05-03T04:03:15.786Z,15.17
2019-05-03T04:05:46.732Z,17.13
2019-05-03T04:08:16.167Z,15.53
2019-05-03T04:10:46.414Z,17.40
2019-05-03T04:13:16.264Z,15.00
2019-05-03T04:16:00.232Z,16.20
2019-05-03T04:18:30.467Z,17.57
2019-05-03T04:20:59.035Z,16.70
2019-05-03T04:23:30.135Z,19.93
2019-05-03T04:26:00.672Z,15.20
2019-05-03T04:28:29.358Z,18.83
2019-05-03T04:30:57.990Z,20.20
2019-05-03T04:33:27.152Z,19.47
2019-05-03T04:35:56.186Z,17.00
2019-05-03T04:38:25.552Z,15.77
2019-05-03T04:40:56.267Z,18.17
2019-05-03T04:43:26.384Z,19.27
2019-05-03T04:46:07.126Z,19.80
2019-05-03T04:48:35.887Z,19.20
2019-05-03T04:51:05.964Z,36.90
2019-05-03T04:53:36.321Z,32.50
2019-05-03T04:56:05.702Z,21.93
2019-05-03T04:58:36.478Z,16.90
2019-05-03T05:01:06.754Z,20.57
2019-05-03T05:03:36.207Z,21.43
2019-05-03T05:06:06.359Z,19.40
2019-05-03T05:08:36.202Z,17.20
2019-05-03T05:11:08.013Z,19.23
2019-05-03T05:13:35.790Z,20.20
2019-05-03T05:16:05.977Z,17.67
2019-05-03T05:18:36.446Z,17.03
2019-05-03T05:21:14.850Z,17.43
2019-05-03T05:23:59.795Z,20.63
2019-05-03T05:26:35.853Z,19.10
2019-05-03T05:29:08.938Z,18.50
2019-05-03T05:31:37.429Z,19.80
2019-05-03T05:34:08.551Z,18.30
2019-05-03T05:36:36.025Z,18.07
2019-05-03T05:39:06.417Z,16.03
2019-05-03T05:41:34.935Z,18.50
2019-05-03T05:44:05.403Z,22.60
2019-05-03T05:46:35.599Z,16.57
2019-05-03T05:49:06.385Z,18.67
2019-05-03T05:51:35.287Z,17.53
2019-05-03T05:54:05.209Z,18.37
2019-05-03T05:56:44.711Z,18.47
2019-05-03T05:59:14.961Z,22.73
2019-05-03T06:01:47.774Z,19.97
2019-05-03T06:04:16.212Z,20.97
2019-05-03T06:06:49.713Z,19.17
2019-05-03T06:09:27.513Z,16.13
2019-05-03T06:12:00.953Z,18.13
2019-05-03T06:14:35.535Z,18.67
2019-05-03T06:17:24.547Z,18.20
2019-05-03T06:19:55.060Z,19.73
2019-05-03T06:22:25.755Z,17.77
2019-05-03T06:24:56.199Z,20.83
2019-05-03T06:27:35.079Z,21.40
2019-05-03T06:30:06.580Z,18.47
2019-05-03T06:32:36.669Z,19.93
2019-05-03T06:35:07.129Z,20.20
2019-05-03T06:37:37.176Z,18.47
2019-05-03T06:40:07.522Z,18.60
2019-05-03T06:42:35.946Z,20.80
2019-05-03T06:45:10.446Z,20.57
2019-05-03T06:47:40.276Z,18.93
2019-05-03T06:50:08.575Z,19.20
2019-05-03T06:52:37.044Z,20.40
2019-05-03T06:55:10.648Z,22.10
2019-05-03T06:57:40.155Z,20.27
2019-05-03T07:00:24.784Z,19.83
2019-05-03T07:02:55.119Z,22.63
2019-05-03T07:05:27.994Z,18.90
2019-05-03T07:08:15.321Z,25.80
2019-05-03T07:10:46.460Z,18.70
2019-05-03T07:13:15.277Z,19.37
2019-05-03T07:15:45.460Z,17.30
2019-05-03T07:18:15.720Z,19.90
2019-05-03T07:20:49.246Z,20.47
2019-05-03T07:23:17.660Z,18.37
2019-05-03T07:25:46.477Z,18.03
2019-05-03T07:28:15.834Z,16.90
2019-05-03T07:30:45.400Z,18.57
2019-05-03T07:33:18.431Z,17.70
2019-05-03T07:35:47.122Z,15.23
2019-05-03T07:38:15.916Z,12.97
2019-05-03T07:40:44.681Z,15.20
2019-05-03T07:43:14.876Z,18.10
2019-05-03T07:45:44.655Z,10.97
2019-05-03T07:48:14.991Z,13.60
2019-05-03T07:50:44.728Z,12.60
2019-05-03T07:53:15.068Z,9.43
2019-05-03T07:55:50.770Z,10.20
2019-05-03T07:58:25.265Z,9.63
2019-05-03T08:01:05.467Z,8.60
2019-05-03T08:03:25.647Z,8.40
2019-05-03T08:05:55.326Z,7.33
2019-05-03T08:08:25.042Z,7.23
2019-05-03T08:10:54.971Z,6.50
2019-05-03T08:13:25.346Z,8.83
2019-05-03T08:15:55.822Z,9.50
2019-05-03T08:18:25.732Z,6.23
2019-05-03T08:20:55.635Z,5.90
2019-05-03T08:23:29.295Z,5.40
2019-05-03T08:25:55.645Z,8.90
2019-05-03T08:28:24.808Z,6.30
2019-05-03T08:31:11.414Z,5.23
2019-05-03T08:33:48.498Z,5.83
2019-05-03T08:36:17.290Z,9.17
2019-05-03T08:38:45.798Z,5.17
2019-05-03T08:41:19.075Z,5.53
2019-05-03T08:43:49.102Z,5.03
2019-05-03T08:46:17.526Z,5.97
2019-05-03T08:48:46.269Z,7.50
2019-05-03T08:51:14.947Z,7.77
2019-05-03T08:53:45.668Z,6.33
2019-05-03T08:56:15.505Z,7.17
2019-05-03T08:58:45.102Z,6.70
2019-05-03T09:01:14.779Z,7.90
2019-05-03T09:03:45.586Z,6.80
2019-05-03T09:06:15.427Z,6.93
2019-05-03T09:08:45.857Z,6.90
2019-05-03T09:11:16.408Z,7.13
2019-05-03T09:14:01.954Z,6.27
2019-05-03T09:16:31.009Z,5.10
2019-05-03T09:18:59.822Z,5.83
2019-05-03T09:21:28.608Z,9.63
2019-05-03T09:23:57.385Z,5.10
2019-05-03T09:26:29.168Z,6.77
2019-05-03T09:28:55.978Z,7.23
2019-05-03T09:31:24.961Z,5.97
2019-05-03T09:33:54.848Z,4.50
2019-05-03T09:36:25.332Z,6.97
2019-05-03T09:38:54.978Z,7.60
2019-05-03T09:41:25.646Z,7.40
2019-05-03T09:43:55.510Z,4.90
2019-05-03T09:46:26.480Z,4.67
2019-05-03T09:49:09.472Z,5.63
2019-05-03T09:51:25.914Z,4.00
2019-05-03T09:53:59.193Z,6.10
2019-05-03T09:56:55.220Z,5.00
2019-05-03T09:59:16.026Z,4.40
2019-05-03T10:01:45.649Z,3.73
2019-05-03T10:04:14.268Z,4.60
2019-05-03T10:06:45.128Z,3.20
2019-05-03T10:09:15.248Z,3.00
2019-05-03T10:11:45.594Z,3.27
2019-05-03T10:14:15.568Z,4.00
2019-05-03T10:16:54.613Z,3.27
2019-05-03T10:19:34.786Z,4.90
2019-05-03T10:21:54.378Z,3.60
2019-05-03T10:24:25.324Z,4.50
2019-05-03T10:26:55.200Z,3.80
2019-05-03T10:29:25.115Z,4.10
2019-05-03T10:31:58.998Z,3.50
2019-05-03T10:34:28.091Z,5.13
2019-05-03T10:36:56.559Z,3.33
2019-05-03T10:39:26.292Z,4.60
2019-05-03T10:41:55.144Z,3.40
2019-05-03T10:44:24.617Z,3.80
2019-05-03T10:46:53.138Z,2.53
2019-05-03T10:49:21.837Z,4.67
2019-05-03T10:52:01.294Z,4.37
2019-05-03T10:54:29.712Z,3.83
2019-05-03T10:57:05.128Z,3.13
2019-05-03T10:59:32.912Z,6.23
2019-05-03T11:02:02.973Z,6.57
2019-05-03T11:04:31.454Z,3.40
2019-05-03T11:07:00.170Z,3.30
2019-05-03T11:09:28.852Z,2.93
2019-05-03T11:11:58.887Z,3.77
2019-05-03T11:14:28.227Z,3.00
2019-05-03T11:16:56.812Z,4.97
2019-05-03T11:19:25.480Z,5.43
2019-05-03T11:21:55.269Z,4.97
2019-05-03T11:24:27.193Z,8.33
2019-05-03T11:26:56.178Z,5.00
2019-05-03T11:29:24.790Z,5.60
2019-05-03T11:31:57.868Z,3.77
2019-05-03T11:34:44.913Z,3.80
2019-05-03T11:37:21.919Z,5.37
2019-05-03T11:39:51.438Z,5.20
2019-05-03T11:42:20.219Z,4.27
2019-05-03T11:44:48.701Z,5.67
2019-05-03T11:47:17.144Z,4.90
2019-05-03T11:49:45.648Z,4.33
2019-05-03T11:52:15.862Z,4.73
2019-05-03T11:54:45.321Z,7.20
2019-05-03T11:57:27.536Z,4.40
2019-05-03T11:59:56.353Z,5.30
2019-05-03T12:02:29.402Z,3.90
2019-05-03T12:04:59.546Z,4.50
2019-05-03T12:07:39.315Z,8.30
2019-05-03T12:10:16.541Z,6.50
2019-05-03T12:12:55.304Z,6.03
2019-05-03T12:15:23.901Z,4.60
2019-05-03T12:17:59.239Z,4.83
2019-05-03T12:20:28.876Z,4.00
2019-05-03T12:22:57.758Z,4.70
2019-05-03T12:25:27.178Z,5.70
2019-05-03T12:27:56.532Z,4.70
2019-05-03T12:30:27.672Z,5.80
2019-05-03T12:32:55.345Z,4.77
2019-05-03T12:35:24.667Z,3.93
2019-05-03T12:37:55.091Z,5.90
2019-05-03T12:40:25.429Z,5.90
2019-05-03T12:42:55.288Z,4.03
2019-05-03T12:45:24.894Z,7.63
2019-05-03T12:47:55.733Z,3.90
2019-05-03T12:50:25.152Z,3.63
2019-05-03T12:52:55.500Z,4.80
2019-05-03T12:55:24.859Z,4.80
2019-05-03T12:57:55.311Z,4.20
2019-05-03T13:00:37.700Z,5.13
2019-05-03T13:03:08.052Z,3.63
2019-05-03T13:05:37.023Z,4.00
2019-05-03T13:08:35.243Z,4.00
2019-05-03T13:11:05.328Z,4.00
2019-05-03T13:13:35.878Z,3.83
2019-05-03T13:16:05.454Z,5.17
2019-05-03T13:18:35.178Z,7.03
2019-05-03T13:21:05.738Z,6.67
2019-05-03T13:23:35.663Z,3.57
2019-05-03T13:26:05.919Z,5.50
2019-05-03T13:28:34.764Z,5.27
2019-05-03T13:31:05.477Z,4.67
2019-05-03T13:33:34.819Z,4.50
2019-05-03T13:36:04.156Z,5.70
2019-05-03T13:38:34.724Z,4.10
2019-05-03T13:41:02.972Z,6.23
2019-05-03T13:43:31.813Z,2.90
2019-05-03T13:46:00.360Z,3.57
2019-05-03T13:48:41.674Z,4.90
2019-05-03T13:50:59.187Z,4.93
2019-05-03T13:53:28.023Z,4.23
2019-05-03T13:55:56.410Z,5.37
2019-05-03T13:58:26.435Z,3.20
2019-05-03T14:00:55.236Z,5.33
2019-05-03T14:03:23.996Z,3.77
2019-05-03T14:05:52.683Z,9.40
2019-05-03T14:08:21.117Z,3.27
2019-05-03T14:10:49.537Z,7.23
2019-05-03T14:13:17.952Z,3.10
2019-05-03T14:15:46.804Z,5.70
2019-05-03T14:18:15.571Z,3.93
2019-05-03T14:21:05.029Z,3.10
2019-05-03T14:23:34.722Z,5.23
2019-05-03T14:26:03.538Z,4.10
2019-05-03T14:28:34.528Z,8.00
2019-05-03T14:31:05.133Z,6.50
2019-05-03T14:33:35.319Z,4.43
2019-05-03T14:36:05.349Z,5.43
2019-05-03T14:38:34.512Z,4.33
2019-05-03T14:41:05.372Z,7.13
2019-05-03T14:43:35.551Z,3.13
2019-05-03T14:46:05.557Z,2.80
2019-05-03T14:48:35.120Z,6.90
2019-05-03T14:51:05.467Z,4.90
2019-05-03T14:53:34.803Z,4.33
2019-05-03T14:56:07.777Z,2.90
2019-05-03T14:58:49.257Z,2.67
2019-05-03T15:01:21.744Z,4.90
2019-05-03T15:03:50.174Z,2.30
2019-05-03T15:06:18.593Z,4.53
2019-05-03T15:08:47.929Z,3.23
2019-05-03T15:11:16.632Z,3.57
2019-05-03T15:13:45.606Z,4.30
2019-05-03T15:16:14.461Z,4.50
2019-05-03T15:18:42.993Z,2.87
2019-05-03T15:21:11.739Z,3.57
2019-05-03T15:23:40.162Z,4.00
2019-05-03T15:26:08.874Z,4.33
2019-05-03T15:28:37.427Z,3.50
2019-05-03T15:31:06.311Z,3.63
2019-05-03T15:33:35.333Z,4.60
2019-05-03T15:36:04.794Z,4.17
2019-05-03T15:38:34.650Z,6.10
2019-05-03T15:41:05.415Z,4.37
2019-05-03T15:43:35.293Z,3.47
2019-05-03T15:46:08.117Z,2.70
2019-05-03T15:48:38.160Z,3.37
2019-05-03T15:51:06.604Z,3.23
2019-05-03T15:53:35.434Z,4.20
2019-05-03T15:56:05.399Z,6.13
2019-05-03T15:58:34.165Z,4.67
2019-05-03T16:01:04.522Z,4.77
2019-05-03T16:03:33.010Z,4.50
2019-05-03T16:06:01.491Z,5.67
2019-05-03T16:08:29.914Z,4.07
2019-05-03T16:10:58.340Z,5.63
2019-05-03T16:13:27.094Z,2.73
2019-05-03T16:15:55.519Z,5.67
2019-05-03T16:18:24.563Z,6.20
2019-05-03T16:20:54.665Z,3.27
2019-05-03T16:23:25.011Z,3.13
2019-05-03T16:25:54.383Z,3.67
2019-05-03T16:28:44.692Z,3.50
2019-05-03T16:31:15.070Z,6.47
2019-05-03T16:33:45.696Z,3.57
2019-05-03T16:36:14.884Z,3.20
2019-05-03T16:38:44.973Z,4.00
2019-05-03T16:41:17.446Z,5.27
2019-05-03T16:43:45.552Z,3.53
2019-05-03T16:46:15.090Z,4.93
2019-05-03T16:48:44.787Z,3.67
2019-05-03T16:51:15.016Z,3.53
2019-05-03T16:53:44.549Z,4.60
2019-05-03T16:56:16.560Z,3.10
2019-05-03T16:58:44.631Z,8.30
2019-05-03T17:01:17.837Z,5.50
2019-05-03T17:03:46.776Z,4.40
2019-05-03T17:06:22.729Z,6.13
2019-05-03T17:09:02.029Z,6.90
2019-05-03T17:11:30.488Z,4.60
2019-05-03T17:13:58.894Z,2.73
2019-05-03T17:16:27.922Z,4.13
2019-05-03T17:18:56.795Z,3.13
2019-05-03T17:21:25.589Z,6.43
2019-05-03T17:23:54.497Z,3.03
2019-05-03T17:26:24.887Z,5.60
2019-05-03T17:28:55.233Z,3.97
2019-05-03T17:31:24.355Z,4.43
2019-05-03T17:33:56.504Z,2.70
2019-05-03T17:36:25.063Z,4.17
2019-05-03T17:38:55.636Z,3.20
2019-05-03T17:41:35.015Z,5.57
2019-05-03T17:44:05.064Z,4.07
2019-05-03T17:46:34.786Z,4.27
2019-05-03T17:49:05.232Z,3.50
2019-05-03T17:51:39.550Z,4.83
2019-05-03T17:54:28.283Z,4.40
2019-05-03T17:57:07.085Z,5.00
2019-05-03T17:59:37.234Z,4.03
2019-05-03T18:02:22.431Z,2.80
2019-05-03T18:05:10.498Z,7.00
2019-05-03T18:07:57.338Z,5.03
2019-05-03T18:10:27.650Z,3.80
2019-05-03T18:12:56.257Z,5.10
2019-05-03T18:15:25.165Z,4.73
2019-05-03T18:17:54.928Z,3.03
2019-05-03T18:20:25.549Z,4.47
2019-05-03T18:22:54.813Z,4.23
2019-05-03T18:25:24.811Z,3.20
2019-05-03T18:27:55.051Z,4.47
2019-05-03T18:30:23.607Z,4.20
2019-05-03T18:32:52.052Z,3.13
2019-05-03T18:35:20.492Z,3.10
2019-05-03T18:37:51.032Z,4.60
2019-05-03T18:40:19.496Z,5.40
2019-05-03T18:42:49.619Z,4.53
2019-05-03T18:45:19.752Z,3.40
2019-05-03T18:47:48.772Z,5.43
2019-05-03T18:50:18.116Z,3.70
2019-05-03T18:52:46.552Z,2.70
2019-05-03T18:55:15.069Z,7.00
2019-05-03T18:57:44.738Z,5.40
2019-05-03T19:00:15.359Z,4.83
2019-05-03T19:02:44.541Z,3.20
2019-05-03T19:05:13.092Z,4.03
2019-05-03T19:07:50.176Z,4.20
2019-05-03T19:10:20.322Z,4.43
2019-05-03T19:12:55.080Z,6.67
2019-05-03T19:15:25.170Z,4.33
2019-05-03T19:17:58.332Z,3.10
2019-05-03T19:20:26.760Z,4.63
2019-05-03T19:22:56.256Z,5.93
2019-05-03T19:25:25.622Z,3.87
2019-05-03T19:27:54.573Z,3.93
2019-05-03T19:30:24.464Z,3.77
2019-05-03T19:32:55.180Z,3.50
2019-05-03T19:35:24.969Z,4.80
2019-05-03T19:37:55.429Z,3.60
2019-05-03T19:40:25.614Z,4.73
2019-05-03T19:42:55.200Z,4.50
2019-05-03T19:45:24.815Z,6.87
2019-05-03T19:47:55.221Z,4.53
2019-05-03T19:50:24.835Z,5.37
2019-05-03T19:52:57.779Z,6.27
2019-05-03T19:55:26.195Z,5.43
2019-05-03T19:57:54.919Z,5.00
2019-05-03T20:00:25.679Z,7.00
2019-05-03T20:02:55.912Z,6.20
2019-05-03T20:05:25.953Z,3.57
2019-05-03T20:08:07.823Z,4.00
2019-05-03T20:10:36.247Z,4.37
2019-05-03T20:13:05.032Z,5.97
2019-05-03T20:15:33.613Z,4.27
2019-05-03T20:18:02.048Z,7.63
2019-05-03T20:20:30.797Z,6.80
2019-05-03T20:22:59.320Z,6.67
2019-05-03T20:25:27.765Z,8.27
2019-05-03T20:27:56.546Z,5.83
2019-05-03T20:30:25.538Z,6.43
2019-05-03T20:32:55.555Z,6.07
2019-05-03T20:35:25.225Z,9.40
2019-05-03T20:37:55.337Z,5.83
2019-05-03T20:40:25.600Z,8.27
2019-05-03T20:42:55.834Z,6.37
2019-05-03T20:45:44.690Z,9.40
2019-05-03T20:48:15.023Z,6.30
2019-05-03T20:50:44.721Z,6.03
2019-05-03T20:53:13.332Z,8.07
2019-05-03T20:55:42.121Z,9.33
2019-05-03T20:58:11.458Z,10.07
2019-05-03T21:00:40.754Z,7.57
2019-05-03T21:03:09.182Z,7.93
2019-05-03T21:05:37.911Z,6.33
2019-05-03T21:08:06.375Z,6.63
2019-05-03T21:10:35.060Z,6.50
2019-05-03T21:13:05.266Z,11.93
2019-05-03T21:15:50.597Z,9.30
2019-05-03T21:18:37.196Z,8.03
2019-05-03T21:21:13.068Z,14.43
2019-05-03T21:23:46.410Z,7.70
2019-05-03T21:26:16.612Z,11.93
2019-05-03T21:28:45.334Z,6.80
2019-05-03T21:31:15.621Z,7.17
2019-05-03T21:33:44.564Z,7.83
2019-05-03T21:36:15.085Z,6.83
2019-05-03T21:38:44.415Z,10.13
2019-05-03T21:41:13.095Z,12.33
2019-05-03T21:43:41.548Z,6.93
2019-05-03T21:46:25.583Z,7.10
2019-05-03T21:49:01.288Z,8.00
2019-05-03T21:51:30.963Z,8.73
2019-05-03T21:53:59.394Z,9.13
2019-05-03T21:56:28.175Z,6.90
2019-05-03T21:58:56.599Z,10.47
2019-05-03T22:01:25.930Z,8.07
2019-05-03T22:03:54.681Z,11.53
2019-05-03T22:06:24.695Z,9.10
2019-05-03T22:08:55.307Z,8.80
2019-05-03T22:11:25.136Z,8.60
2019-05-03T22:13:57.076Z,10.70
2019-05-03T22:16:34.549Z,11.73
2019-05-03T22:19:03.079Z,11.13
2019-05-03T22:21:34.701Z,9.77
2019-05-03T22:24:08.289Z,7.90
2019-05-03T22:26:50.778Z,11.33
2019-05-03T22:29:19.553Z,11.47
2019-05-03T22:31:48.048Z,11.07
2019-05-03T22:34:16.465Z,7.87
2019-05-03T22:36:45.509Z,19.10
2019-05-03T22:39:15.666Z,10.80
2019-05-03T22:41:44.089Z,14.70
2019-05-03T22:44:16.748Z,8.37
2019-05-03T22:46:44.618Z,10.50
2019-05-03T22:49:15.474Z,9.33
2019-05-03T22:51:45.139Z,10.93
2019-05-03T22:54:15.390Z,10.73
2019-05-03T22:56:44.817Z,10.80
2019-05-03T22:59:14.701Z,8.23
2019-05-03T23:01:45.490Z,10.10
2019-05-03T23:04:14.616Z,10.00
2019-05-03T23:06:46.650Z,10.00
2019-05-03T23:09:15.631Z,10.83
2019-05-03T23:11:44.905Z,12.53
2019-05-03T23:14:15.342Z,9.60
2019-05-03T23:16:44.923Z,15.40
2019-05-03T23:19:15.017Z,11.60
2019-05-03T23:21:51.473Z,11.63
2019-05-03T23:24:19.907Z,8.63
2019-05-03T23:26:48.324Z,9.57
2019-05-03T23:29:17.818Z,10.17
2019-05-03T23:31:46.245Z,16.30
2019-05-03T23:34:14.731Z,9.03
2019-05-03T23:36:43.200Z,10.37
2019-05-03T23:39:12.079Z,13.77
2019-05-03T23:41:40.510Z,14.57
2019-05-03T23:44:09.283Z,10.97
2019-05-03T23:46:58.135Z,9.43
2019-05-03T23:49:28.349Z,10.93
2019-05-03T23:51:58.818Z,10.87
2019-05-03T23:54:28.062Z,13.40
2019-05-03T23:56:56.619Z,11.30
2019-05-03T23:59:25.051Z,10.90
